createdAt,value
2023-10-30T00:01:37.238Z,100015.56
2023-10-30T00:04:25.330Z,100017.78
2023-10-30T00:07:14.668Z,99991.97
2023-10-30T00:10:02.533Z,99998.94
2023-10-30T00:12:50.527Z,100005.63
2023-10-30T00:15:38.428Z,100016.63
2023-10-30T00:18:26.561Z,99990.94
2023-10-30T00:21:14.517Z,100007.31
2023-10-30T00:24:04.120Z,100006.84
2023-10-30T00:26:52.052Z,100016.06
2023-10-30T00:29:42.012Z,100011.56
2023-10-30T00:32:29.927Z,100014.19
2023-10-30T00:35:17.827Z,100000.56
2023-10-30T00:38:06.117Z,100013.66
2023-10-30T00:40:55.479Z,100013.66
2023-10-30T00:43:43.475Z,100010.16
2023-10-30T00:46:31.554Z,100015.06
2023-10-30T00:49:19.754Z,99999.59
2023-10-30T00:52:08.361Z,100024.59
2023-10-30T00:54:56.134Z,100016.69
2023-10-30T00:57:45.512Z,100017.81
2023-10-30T01:00:33.286Z,100021.94
2023-10-30T01:03:24.900Z,100015.38
2023-10-30T01:06:12.949Z,100001.78
2023-10-30T01:09:01.045Z,100011.47
2023-10-30T01:11:48.990Z,99995.16
2023-10-30T01:14:38.269Z,100013.72
2023-10-30T01:17:26.416Z,100015.44
2023-10-30T01:20:15.047Z,100019.03
2023-10-30T01:23:02.925Z,100033.44
2023-10-30T01:25:51.149Z,100025.69
2023-10-30T01:28:38.915Z,100015.03
2023-10-30T01:31:29.122Z,100022.34
2023-10-30T01:34:17.017Z,100023.09
2023-10-30T01:37:05.553Z,100022.31
2023-10-30T01:39:53.284Z,100035.13
2023-10-30T01:42:41.297Z,100029.81
2023-10-30T01:45:29.170Z,100030.66
2023-10-30T01:48:18.558Z,100021.56
2023-10-30T01:51:08.867Z,100031.94
2023-10-30T01:53:57.089Z,100026.13
2023-10-30T01:56:45.253Z,100028.84
2023-10-30T01:59:34.039Z,100029.94
2023-10-30T02:02:23.250Z,100014.75
2023-10-30T02:05:14.738Z,100020.22
2023-10-30T02:08:03.335Z,100032.25
2023-10-30T02:10:51.350Z,100024.34
2023-10-30T02:13:39.106Z,100018.81
2023-10-30T02:16:27.201Z,100000.94
2023-10-30T02:19:23.903Z,100025.16
2023-10-30T02:22:13.150Z,100027.59
2023-10-30T02:25:01.355Z,100026.75
2023-10-30T02:27:50.745Z,100023.63
2023-10-30T02:30:38.774Z,100028.84
2023-10-30T02:33:27.269Z,100005.13
2023-10-30T02:36:15.117Z,100029.03
2023-10-30T02:39:04.196Z,100033.09
2023-10-30T02:41:51.916Z,100025.03
2023-10-30T02:44:41.447Z,99977.66
2023-10-30T02:47:30.031Z,100028.19
2023-10-30T02:50:17.887Z,100022.97
2023-10-30T02:53:07.366Z,99953.84
2023-10-30T02:55:55.513Z,100023.09
2023-10-30T02:58:43.646Z,100021.13
2023-10-30T03:01:32.877Z,100027.03
2023-10-30T03:04:21.163Z,100026.63
2023-10-30T03:07:08.960Z,100036.47
2023-10-30T03:09:56.919Z,100022.38
2023-10-30T03:12:44.950Z,100044.28
2023-10-30T03:15:32.964Z,100042.84
2023-10-30T03:18:22.308Z,100043.94
2023-10-30T03:21:10.250Z,100050.88
2023-10-30T03:23:58.300Z,100046.78
2023-10-30T03:26:46.048Z,100054.41
2023-10-30T03:29:37.881Z,100056.25
2023-10-30T03:32:25.720Z,100057.66
2023-10-30T03:35:15.041Z,100061.47
2023-10-30T03:38:02.923Z,100054.53
2023-10-30T03:40:50.781Z,100031.09
2023-10-30T03:43:38.804Z,100044.50
2023-10-30T03:46:26.718Z,100047.88
2023-10-30T03:49:14.862Z,100040.84
2023-10-30T03:52:04.119Z,100037.16
2023-10-30T03:54:51.908Z,100035.91
2023-10-30T03:57:41.747Z,100040.13
2023-10-30T04:00:29.754Z,100048.00
2023-10-30T04:03:18.025Z,100038.84
2023-10-30T04:06:06.583Z,100043.34
2023-10-30T04:08:55.943Z,100040.94
2023-10-30T04:11:47.634Z,100035.56
2023-10-30T04:14:35.607Z,100043.47
2023-10-30T04:17:24.344Z,100045.44
2023-10-30T04:20:13.432Z,100049.81
2023-10-30T04:23:01.526Z,100052.59
2023-10-30T04:25:50.865Z,100050.66
2023-10-30T04:28:38.744Z,100048.69
2023-10-30T04:31:26.701Z,100020.69
2023-10-30T04:34:14.735Z,100059.75
2023-10-30T04:37:02.896Z,100044.63
2023-10-30T04:39:51.168Z,100055.47
2023-10-30T04:42:41.367Z,100052.25
2023-10-30T04:45:29.522Z,100066.66
2023-10-30T04:48:17.577Z,100058.63
2023-10-30T04:51:06.080Z,100046.31
2023-10-30T04:53:55.376Z,100065.84
2023-10-30T04:56:43.712Z,100056.53
2023-10-30T04:59:34.053Z,100029.44
2023-10-30T05:02:22.174Z,100073.41
2023-10-30T05:05:10.585Z,100070.59
2023-10-30T05:07:58.372Z,100079.50
2023-10-30T05:10:47.930Z,100076.28
2023-10-30T05:13:36.677Z,100085.28
2023-10-30T05:16:26.293Z,100083.72
2023-10-30T05:19:14.185Z,100080.16
2023-10-30T05:22:02.296Z,100084.69
2023-10-30T05:24:50.176Z,100090.09
2023-10-30T05:27:38.339Z,100089.81
2023-10-30T05:30:26.543Z,100083.91
2023-10-30T05:33:15.864Z,100085.38
2023-10-30T05:36:04.715Z,100064.19
2023-10-30T05:38:52.529Z,99998.16
2023-10-30T05:41:40.383Z,100097.22
2023-10-30T05:44:31.532Z,100071.16
2023-10-30T05:47:19.448Z,100090.06
2023-10-30T05:50:11.273Z,100063.53
2023-10-30T05:52:59.049Z,100100.00
2023-10-30T05:55:47.564Z,100102.00
2023-10-30T05:58:35.590Z,100104.09
2023-10-30T06:01:23.550Z,100101.69
2023-10-30T06:04:11.611Z,100079.00
2023-10-30T06:07:00.934Z,100107.47
2023-10-30T06:09:49.222Z,100100.84
2023-10-30T06:12:37.342Z,100111.13
2023-10-30T06:15:25.630Z,100105.78
2023-10-30T06:18:13.763Z,100099.41
2023-10-30T06:21:03.075Z,100048.31
2023-10-30T06:23:52.386Z,100103.34
2023-10-30T06:26:42.271Z,100104.22
2023-10-30T06:29:30.476Z,100099.22
2023-10-30T06:32:18.781Z,100109.38
2023-10-30T06:35:09.241Z,100107.31
2023-10-30T06:37:57.387Z,100106.75
2023-10-30T06:40:47.428Z,100096.63
2023-10-30T06:43:36.144Z,100099.81
2023-10-30T06:46:24.453Z,100068.75
2023-10-30T06:49:12.488Z,100107.22
2023-10-30T06:52:01.789Z,100111.06
2023-10-30T06:54:49.854Z,100117.13
2023-10-30T06:57:39.387Z,100072.00
2023-10-30T07:00:28.175Z,100118.84
2023-10-30T07:03:16.467Z,100117.19
2023-10-30T07:06:04.798Z,100111.88
2023-10-30T07:08:52.555Z,100109.44
2023-10-30T07:11:41.254Z,100106.88
2023-10-30T07:14:30.875Z,100105.16
2023-10-30T07:17:19.003Z,100106.44
2023-10-30T07:20:07.890Z,100100.41
2023-10-30T07:22:55.971Z,100106.97
2023-10-30T07:25:43.902Z,100112.03
2023-10-30T07:28:31.890Z,100101.28
2023-10-30T07:31:22.303Z,100055.09
2023-10-30T07:34:10.273Z,100104.78
2023-10-30T07:36:58.855Z,100070.41
2023-10-30T07:39:46.681Z,100102.19
2023-10-30T07:42:34.944Z,100073.19
2023-10-30T07:45:22.889Z,100097.19
2023-10-30T07:48:12.312Z,100098.72
2023-10-30T07:51:03.836Z,100102.94
2023-10-30T07:53:52.088Z,100104.44
2023-10-30T07:56:40.334Z,100075.78
2023-10-30T07:59:28.074Z,100100.41
2023-10-30T08:02:16.195Z,100102.28
2023-10-30T08:05:06.231Z,100093.16
2023-10-30T08:07:54.250Z,100100.25
2023-10-30T08:10:42.076Z,100109.03
2023-10-30T08:13:30.077Z,100079.16
2023-10-30T08:16:18.343Z,100074.63
2023-10-30T08:19:06.610Z,100092.16
2023-10-30T08:21:56.114Z,100085.38
2023-10-30T08:24:44.024Z,100079.34
2023-10-30T08:27:32.145Z,100097.38
2023-10-30T08:30:20.411Z,100095.25
2023-10-30T08:33:08.289Z,100087.47
2023-10-30T08:35:56.582Z,100090.28
2023-10-30T08:38:45.725Z,100087.56
2023-10-30T08:41:34.974Z,100092.63
2023-10-30T08:44:26.025Z,100085.19
2023-10-30T08:47:18.153Z,100089.03
2023-10-30T08:50:09.467Z,100081.44
2023-10-30T08:52:57.533Z,100084.97
2023-10-30T08:55:46.872Z,100087.16
2023-10-30T08:58:34.828Z,100077.97
2023-10-30T09:01:22.721Z,100080.31
2023-10-30T09:04:11.531Z,100079.25
2023-10-30T09:06:59.496Z,100040.38
2023-10-30T09:09:47.930Z,100060.75
2023-10-30T09:12:37.650Z,100070.69
2023-10-30T09:15:25.693Z,100070.31
2023-10-30T09:18:13.760Z,100067.38
2023-10-30T09:21:01.782Z,100067.25
2023-10-30T09:23:49.698Z,100061.13
2023-10-30T09:26:37.579Z,100065.25
2023-10-30T09:29:27.237Z,100063.41
2023-10-30T09:32:15.609Z,100064.00
2023-10-30T09:35:04.585Z,100063.41
2023-10-30T09:37:52.578Z,100056.63
2023-10-30T09:40:40.636Z,100033.66
2023-10-30T09:43:30.420Z,100048.09
2023-10-30T09:46:24.681Z,100053.16
2023-10-30T09:49:15.271Z,100050.56
2023-10-30T09:52:05.648Z,100049.06
2023-10-30T09:54:55.645Z,100034.28
2023-10-30T09:57:44.985Z,100033.81
2023-10-30T10:00:33.586Z,100034.38
2023-10-30T10:03:23.116Z,100031.88
2023-10-30T10:06:11.397Z,100022.09
2023-10-30T10:09:00.313Z,100014.88
2023-10-30T10:11:48.594Z,100013.38
2023-10-30T10:14:36.620Z,100009.56
2023-10-30T10:17:24.841Z,100014.78
2023-10-30T10:20:14.749Z,100012.75
2023-10-30T10:23:02.630Z,99992.47
2023-10-30T10:26:00.906Z,100005.53
2023-10-30T10:28:49.322Z,100009.09
2023-10-30T10:31:42.177Z,99995.91
2023-10-30T10:34:33.143Z,99960.81
2023-10-30T10:37:22.747Z,99971.97
2023-10-30T10:40:19.037Z,99982.00
2023-10-30T10:43:09.394Z,99958.84
2023-10-30T10:45:58.407Z,99978.38
2023-10-30T10:48:46.537Z,99978.28
2023-10-30T10:51:38.676Z,99976.66
2023-10-30T10:54:33.335Z,99968.78
2023-10-30T10:57:23.225Z,99968.50
2023-10-30T11:00:15.075Z,99975.63
2023-10-30T11:03:06.897Z,99964.97
2023-10-30T11:05:55.726Z,99955.19
2023-10-30T11:08:50.468Z,99960.19
2023-10-30T11:11:48.499Z,99957.28
2023-10-30T11:14:45.222Z,99959.09
2023-10-30T11:17:33.546Z,99904.72
2023-10-30T11:20:24.414Z,99946.91
2023-10-30T11:23:13.817Z,99941.66
2023-10-30T11:26:01.930Z,99936.25
2023-10-30T11:28:51.216Z,99930.47
2023-10-30T11:32:05.491Z,99927.72
2023-10-30T11:34:53.369Z,99925.56
2023-10-30T11:37:42.520Z,99917.69
2023-10-30T11:40:31.162Z,99916.19
2023-10-30T11:43:21.631Z,99905.44
2023-10-30T11:46:11.050Z,99909.88
2023-10-30T11:49:01.077Z,99893.59
2023-10-30T11:51:53.309Z,99899.78
2023-10-30T11:54:42.920Z,99896.66
2023-10-30T11:57:30.910Z,99896.41
2023-10-30T12:00:19.558Z,99894.34
2023-10-30T12:03:10.831Z,99888.00
2023-10-30T12:05:58.926Z,99872.94
2023-10-30T12:08:46.803Z,99872.66
2023-10-30T12:11:34.879Z,99870.16
2023-10-30T12:14:23.178Z,99850.72
2023-10-30T12:17:11.421Z,99863.38
2023-10-30T12:20:01.154Z,99859.00
2023-10-30T12:22:49.049Z,99853.19
2023-10-30T12:25:36.986Z,99847.56
2023-10-30T12:28:24.765Z,99828.13
2023-10-30T12:31:20.055Z,99836.63
2023-10-30T12:34:09.524Z,99816.13
2023-10-30T12:36:58.800Z,99822.88
2023-10-30T12:40:02.606Z,99812.34
2023-10-30T12:42:51.198Z,99825.94
2023-10-30T12:45:40.447Z,99812.16
2023-10-30T12:48:28.431Z,99802.09
2023-10-30T12:51:16.392Z,99822.91
2023-10-30T12:54:06.372Z,99812.66
2023-10-30T12:56:54.442Z,99814.75
2023-10-30T12:59:42.229Z,99813.06
2023-10-30T13:02:30.612Z,99809.97
2023-10-30T13:05:18.926Z,99802.41
2023-10-30T13:08:07.039Z,99800.97
2023-10-30T13:10:56.421Z,99785.28
2023-10-30T13:13:44.342Z,99799.75
2023-10-30T13:16:32.472Z,99755.56
2023-10-30T13:19:20.373Z,99783.19
2023-10-30T13:22:08.344Z,99781.56
2023-10-30T13:24:56.338Z,99780.50
2023-10-30T13:27:45.700Z,99763.75
2023-10-30T13:30:33.728Z,99771.53
2023-10-30T13:33:21.708Z,99758.81
2023-10-30T13:36:09.887Z,99751.00
2023-10-30T13:38:57.665Z,99765.09
2023-10-30T13:41:47.430Z,99762.34
2023-10-30T13:44:36.920Z,99758.81
2023-10-30T13:47:24.717Z,99761.31
2023-10-30T13:50:12.784Z,99750.03
2023-10-30T13:53:00.614Z,99750.44
2023-10-30T13:55:48.778Z,99751.06
2023-10-30T13:58:38.479Z,99741.06
2023-10-30T14:01:27.988Z,99747.28
2023-10-30T14:07:06.121Z,99742.50
2023-10-30T14:09:57.051Z,99751.91
2023-10-30T14:12:44.911Z,99742.28
2023-10-30T14:15:33.262Z,99745.41
2023-10-30T14:18:22.713Z,99748.94
2023-10-30T14:21:10.588Z,99740.38
2023-10-30T14:23:58.490Z,99743.91
2023-10-30T14:26:46.193Z,99738.06
2023-10-30T14:29:34.284Z,99742.41
2023-10-30T14:32:22.227Z,99736.78
2023-10-30T14:35:11.690Z,99738.63
2023-10-30T14:37:59.465Z,99739.06
2023-10-30T14:40:47.245Z,99724.03
2023-10-30T14:43:35.058Z,99735.25
2023-10-30T14:46:23.808Z,99732.03
2023-10-30T14:49:12.505Z,99741.16
2023-10-30T14:52:03.570Z,99736.28
2023-10-30T14:54:51.678Z,99740.00
2023-10-30T14:57:39.806Z,99739.91
2023-10-30T15:00:27.642Z,99734.38
2023-10-30T15:03:15.918Z,99739.38
2023-10-30T15:06:03.780Z,99735.94
2023-10-30T15:08:53.224Z,99746.94
2023-10-30T15:11:41.076Z,99743.31
2023-10-30T15:14:29.803Z,99752.63
2023-10-30T15:17:18.000Z,99747.75
2023-10-30T15:20:06.856Z,99744.72
2023-10-30T15:22:54.996Z,99737.47
2023-10-30T15:25:44.324Z,99746.63
2023-10-30T15:28:32.559Z,99744.38
2023-10-30T15:31:20.537Z,99749.00
2023-10-30T15:34:08.523Z,99753.88
2023-10-30T15:36:56.720Z,99754.59
2023-10-30T15:39:44.957Z,99727.22
2023-10-30T15:42:34.587Z,99763.25
2023-10-30T15:45:22.523Z,99764.75
2023-10-30T15:48:12.149Z,99764.28
2023-10-30T15:51:00.132Z,99759.25
2023-10-30T15:59:31.546Z,99784.41
2023-10-30T16:02:19.761Z,99785.19
2023-10-30T16:05:08.315Z,99768.88
2023-10-30T16:07:57.489Z,99782.78
2023-10-30T16:10:45.678Z,99788.44
2023-10-30T16:16:26.588Z,99788.53
2023-10-30T16:19:16.212Z,99783.31
2023-10-30T16:22:04.584Z,99794.47
2023-10-30T16:24:52.644Z,99782.38
2023-10-30T16:27:40.438Z,99783.75
2023-10-30T16:30:28.453Z,99797.94
2023-10-30T16:33:19.030Z,99805.75
2023-10-30T16:36:07.884Z,99800.28
2023-10-30T16:38:55.800Z,99811.47
2023-10-30T16:41:44.265Z,99804.66
2023-10-30T16:44:35.473Z,99788.31
2023-10-30T16:47:23.689Z,99806.22
2023-10-30T16:50:14.756Z,99797.69
2023-10-30T16:53:04.020Z,99814.44
2023-10-30T16:55:52.033Z,99784.41
2023-10-30T16:58:40.176Z,99804.16
2023-10-30T17:01:30.269Z,99808.34
2023-10-30T17:04:18.826Z,99805.31
2023-10-30T17:07:09.190Z,99806.72
2023-10-30T17:09:57.086Z,99805.38
2023-10-30T17:12:44.898Z,99776.50
2023-10-30T17:15:32.987Z,99807.44
2023-10-30T17:18:27.437Z,99813.53
2023-10-30T17:21:15.356Z,99820.41
2023-10-30T17:24:05.017Z,99817.63
2023-10-30T17:26:52.871Z,99819.66
2023-10-30T17:29:40.843Z,99788.81
2023-10-30T17:32:28.838Z,99823.72
2023-10-30T17:35:16.679Z,99816.81
2023-10-30T17:38:04.825Z,99815.47
2023-10-30T17:40:54.078Z,99816.63
2023-10-30T17:43:41.848Z,99814.63
2023-10-30T17:46:30.275Z,99819.50
2023-10-30T17:49:18.193Z,99826.59
2023-10-30T17:52:06.230Z,99811.94
2023-10-30T17:54:54.216Z,99816.81
2023-10-30T17:57:43.529Z,99816.88
2023-10-30T18:00:32.071Z,99816.16
2023-10-30T18:03:20.315Z,99820.56
2023-10-30T18:06:08.941Z,99818.34
2023-10-30T18:08:56.860Z,99793.31
2023-10-30T18:11:44.948Z,99817.22
2023-10-30T18:14:36.147Z,99818.03
2023-10-30T18:17:27.830Z,99819.09
2023-10-30T18:20:16.128Z,99815.69
2023-10-30T18:23:04.480Z,99817.22
2023-10-30T18:25:55.485Z,99812.69
2023-10-30T18:28:44.741Z,99826.00
2023-10-30T18:31:34.529Z,99818.69
2023-10-30T18:34:22.583Z,99823.44
2023-10-30T18:37:10.784Z,99820.63
2023-10-30T18:39:58.855Z,99833.25
2023-10-30T18:42:46.725Z,99831.88
2023-10-30T18:45:34.929Z,99823.31
2023-10-30T18:48:27.637Z,99839.78
2023-10-30T18:51:18.260Z,99848.41
2023-10-30T18:54:06.681Z,99851.97
2023-10-30T18:56:56.875Z,99854.50
2023-10-30T18:59:45.328Z,99858.19
2023-10-30T19:02:33.645Z,99870.97
2023-10-30T19:05:23.378Z,99860.19
2023-10-30T19:08:12.098Z,99873.13
2023-10-30T19:11:00.698Z,99836.06
2023-10-30T19:13:49.415Z,99861.31
2023-10-30T19:16:37.893Z,99866.59
2023-10-30T19:19:26.594Z,99875.31
2023-10-30T19:22:18.522Z,99838.53
2023-10-30T19:25:07.640Z,99876.22
2023-10-30T19:27:55.965Z,99845.25
2023-10-30T19:30:44.432Z,99875.91
2023-10-30T19:33:33.086Z,99867.63
2023-10-30T19:36:21.704Z,99874.25
2023-10-30T19:39:12.640Z,99875.56
2023-10-30T19:42:01.137Z,99854.69
2023-10-30T19:44:49.709Z,99875.41
2023-10-30T19:47:38.389Z,99878.56
2023-10-30T19:50:26.913Z,99884.09
2023-10-30T19:53:15.865Z,99895.03
2023-10-30T19:56:06.134Z,99882.25
2023-10-30T19:58:57.600Z,99887.06
2023-10-30T20:01:46.606Z,99879.66
2023-10-30T20:04:36.347Z,99876.59
2023-10-30T20:07:25.067Z,99879.63
2023-10-30T20:10:28.348Z,99879.91
2023-10-30T20:13:25.298Z,99875.50
2023-10-30T20:16:13.861Z,99883.91
2023-10-30T20:19:02.302Z,99862.81
2023-10-30T20:21:50.656Z,99874.25
2023-10-30T20:24:40.872Z,99869.69
2023-10-30T20:27:29.887Z,99876.81
2023-10-30T20:30:22.980Z,99863.25
2023-10-30T20:33:11.140Z,99880.97
2023-10-30T20:36:00.597Z,99881.00
2023-10-30T20:38:48.641Z,99882.69
2023-10-30T20:41:36.806Z,99876.13
2023-10-30T20:44:24.840Z,99878.19
2023-10-30T20:47:17.743Z,99873.00
2023-10-30T20:50:07.000Z,99865.38
2023-10-30T20:52:55.385Z,99866.56
2023-10-30T20:55:43.857Z,99861.63
2023-10-30T20:58:32.523Z,99849.94
2023-10-30T21:01:21.352Z,99864.78
2023-10-30T21:04:10.939Z,99861.34
2023-10-30T21:06:59.006Z,99864.38
2023-10-30T21:09:46.783Z,99858.94
2023-10-30T21:12:35.766Z,99862.59
2023-10-30T21:15:24.974Z,99850.53
2023-10-30T21:18:13.484Z,99857.84
2023-10-30T21:21:03.811Z,99860.16
2023-10-30T21:23:51.758Z,99852.50
2023-10-30T21:26:39.641Z,99852.06
2023-10-30T21:29:27.832Z,99836.00
2023-10-30T21:32:15.711Z,99846.28
2023-10-30T21:35:04.132Z,99839.69
2023-10-30T21:37:53.458Z,99833.06
2023-10-30T21:40:41.357Z,99812.03
2023-10-30T21:43:29.360Z,99843.88
2023-10-30T21:46:18.610Z,99837.66
2023-10-30T21:49:06.767Z,99833.16
2023-10-30T21:51:54.542Z,99839.91
2023-10-30T21:54:45.308Z,99830.25
2023-10-30T21:57:33.229Z,99836.91
2023-10-30T22:00:21.514Z,99839.66
2023-10-30T22:03:09.627Z,99830.38
2023-10-30T22:05:57.628Z,99832.91
2023-10-30T22:08:45.730Z,99834.47
2023-10-30T22:11:35.713Z,99835.50
2023-10-30T22:14:25.007Z,99834.47
2023-10-30T22:17:13.306Z,99840.13
2023-10-30T22:20:01.372Z,99836.84
2023-10-30T22:22:49.311Z,99824.81
2023-10-30T22:25:37.323Z,99817.44
2023-10-30T22:28:26.803Z,99831.91
2023-10-30T22:31:14.753Z,99830.28
2023-10-30T22:34:02.599Z,99818.13
2023-10-30T22:36:50.497Z,99836.44
2023-10-30T22:39:38.420Z,99833.53
2023-10-30T22:42:26.196Z,99832.31
2023-10-30T22:45:15.520Z,99828.13
2023-10-30T22:48:03.624Z,99828.47
2023-10-30T22:50:51.704Z,99831.66
2023-10-30T22:53:39.731Z,99834.88
2023-10-30T22:56:27.592Z,99828.16
2023-10-30T22:59:15.415Z,99835.97
2023-10-30T23:02:04.720Z,99829.66
2023-10-30T23:04:52.687Z,99839.16
2023-10-30T23:07:40.933Z,99836.31
2023-10-30T23:10:28.965Z,99787.38
2023-10-30T23:13:16.927Z,99831.78
2023-10-30T23:16:05.318Z,99827.75
2023-10-30T23:18:54.728Z,99834.72
2023-10-30T23:21:42.629Z,99811.75
2023-10-30T23:24:30.517Z,99825.91
2023-10-30T23:27:18.560Z,99825.88
2023-10-30T23:30:07.480Z,99819.84
2023-10-30T23:32:55.609Z,99823.38
2023-10-30T23:35:44.910Z,99815.41
2023-10-30T23:38:33.695Z,99823.47
2023-10-30T23:41:21.487Z,99827.53
2023-10-30T23:44:09.424Z,99826.00
2023-10-30T23:46:57.601Z,99814.56
2023-10-30T23:49:46.089Z,99826.31
2023-10-30T23:52:35.524Z,99817.19
2023-10-30T23:55:23.397Z,99821.22
2023-10-30T23:58:11.259Z,99817.56
